createdAt,value
2016-09-11T04:00:37.585Z,51.2
2016-09-11T04:01:03.499Z,51.59
2016-09-11T04:01:28.888Z,51.13
2016-09-11T04:01:54.433Z,51.23
2016-09-11T04:02:19.987Z,51.01
2016-09-11T04:02:45.632Z,51.01
2016-09-11T04:03:11.352Z,51.04
2016-09-11T04:03:37.030Z,51.2
2016-09-11T04:04:02.582Z,51.2
2016-09-11T04:04:28.226Z,51.1
2016-09-11T04:04:53.883Z,51.1
2016-09-11T04:05:19.455Z,51.01
2016-09-11T04:05:44.985Z,51.23
2016-09-11T04:06:10.716Z,51.42
2016-09-11T04:06:36.329Z,51.2
2016-09-11T04:07:01.873Z,51.4
2016-09-11T04:07:27.581Z,51.04
2016-09-11T04:07:53.168Z,51.4
2016-09-11T04:08:18.735Z,51.2
2016-09-11T04:08:44.383Z,51.2
2016-09-11T04:09:09.995Z,51.5
2016-09-11T04:09:35.496Z,51.2
2016-09-11T04:10:01.166Z,51.2
2016-09-11T04:10:26.952Z,51.23
2016-09-11T04:10:52.492Z,51.13
2016-09-11T04:11:18.174Z,51.3
2016-09-11T04:11:43.767Z,51.3
2016-09-11T04:12:09.397Z,50.92
2016-09-11T04:12:35.018Z,51.2
2016-09-11T04:13:00.542Z,51.5
2016-09-11T04:13:26.199Z,51.32
2016-09-11T04:13:51.784Z,51.2
2016-09-11T04:14:17.345Z,51.2
2016-09-11T04:14:42.876Z,50.92
2016-09-11T04:15:08.468Z,51.42
2016-09-11T04:15:34.042Z,51.01
2016-09-11T04:15:59.608Z,51.2
2016-09-11T04:16:25.194Z,51.1
2016-09-11T04:16:50.774Z,51.5
2016-09-11T04:17:16.398Z,50.92
2016-09-11T04:17:41.998Z,51.01
2016-09-11T04:18:07.624Z,50.92
2016-09-11T04:18:33.195Z,51.2
2016-09-11T04:18:58.755Z,51.13
2016-09-11T04:19:24.317Z,50.92
2016-09-11T04:19:49.895Z,51.01
2016-09-11T04:20:16.071Z,51.2
2016-09-11T04:20:41.636Z,51.2
2016-09-11T04:21:07.202Z,51.1
2016-09-11T04:21:32.820Z,51.01
2016-09-11T04:21:58.464Z,51.1
2016-09-11T04:22:24.088Z,50.72
2016-09-11T04:22:49.630Z,50.92
2016-09-11T04:23:15.196Z,50.92
2016-09-11T04:23:40.783Z,51.23
2016-09-11T04:24:06.363Z,51.3
2016-09-11T04:24:31.961Z,51.4
2016-09-11T04:25:08.107Z,51.78
2016-09-11T04:25:33.590Z,51.42
2016-09-11T04:25:59.166Z,51.52
2016-09-11T04:26:25.516Z,51.81
2016-09-11T04:26:51.127Z,51.32
2016-09-11T04:27:17.000Z,51.2
2016-09-11T04:27:42.577Z,51.23
2016-09-11T04:28:08.134Z,51.13
2016-09-11T04:28:33.729Z,51.42
2016-09-11T04:28:59.289Z,51.13
2016-09-11T04:29:24.876Z,51.23
2016-09-11T04:29:50.443Z,51.13
2016-09-11T04:30:16.036Z,51.13
2016-09-11T04:30:41.678Z,51.04
2016-09-11T04:31:07.255Z,51.23
2016-09-11T04:31:32.829Z,51.32
2016-09-11T04:31:58.407Z,51.5
2016-09-11T04:32:23.966Z,51.52
2016-09-11T04:32:49.525Z,51.9
2016-09-11T04:33:15.094Z,51.5
2016-09-11T04:33:40.657Z,51.59
2016-09-11T04:34:17.726Z,51.78
2016-09-11T04:34:43.297Z,51.88
2016-09-11T04:35:08.851Z,51.88
2016-09-11T04:35:34.499Z,52.08
2016-09-11T04:36:00.071Z,52.17
2016-09-11T04:36:25.826Z,52.46
2016-09-11T04:36:51.451Z,52.17
2016-09-11T04:37:17.731Z,52.56
2016-09-11T04:37:43.294Z,52.63
2016-09-11T04:38:09.441Z,53.11
2016-09-11T04:38:35.003Z,53.31
2016-09-11T04:39:00.562Z,53.11
2016-09-11T04:39:26.815Z,52.53
2016-09-11T04:39:52.468Z,53.02
2016-09-11T04:40:18.596Z,53.02
2016-09-11T04:40:44.178Z,53.31
2016-09-11T04:41:09.784Z,52.92
2016-09-11T04:41:35.906Z,52.92
2016-09-11T04:42:01.469Z,53.31
2016-09-11T04:42:27.738Z,53.41
2016-09-11T04:42:53.481Z,53.59
2016-09-11T04:43:19.559Z,52.82
2016-09-11T04:43:45.116Z,53.69
2016-09-11T04:44:10.672Z,53.5
2016-09-11T04:44:37.018Z,53.41
2016-09-11T04:45:02.577Z,53.31
2016-09-11T04:45:28.705Z,53.5
2016-09-11T04:45:54.272Z,53.5
2016-09-11T04:46:19.880Z,53.21
2016-09-11T04:46:46.038Z,53.31
2016-09-11T04:47:11.652Z,52.82
2016-09-11T04:47:37.830Z,53.21
2016-09-11T04:48:03.398Z,53.11
2016-09-11T04:48:29.705Z,53.02
2016-09-11T04:48:55.299Z,53.31
2016-09-11T04:49:20.855Z,53.5
2016-09-11T04:49:46.994Z,53.5
2016-09-11T04:50:12.578Z,53.5
2016-09-11T04:50:38.796Z,53.31
2016-09-11T04:51:04.371Z,53.31
2016-09-11T04:51:29.976Z,53.31
2016-09-11T04:51:56.250Z,53.5
2016-09-11T04:52:21.864Z,53.02
2016-09-11T04:52:48.483Z,53.02
2016-09-11T04:53:14.113Z,53.5
2016-09-11T04:53:39.715Z,53.41
2016-09-11T04:54:05.287Z,52.92
2016-09-11T04:54:30.845Z,52.92
2016-09-11T04:54:57.083Z,52.82
2016-09-11T04:55:22.675Z,53.31
2016-09-11T04:55:48.869Z,52.92
2016-09-11T04:56:14.429Z,53.02
2016-09-11T04:56:39.988Z,52.92
2016-09-11T04:57:06.197Z,53.02
2016-09-11T04:57:31.779Z,53.11
2016-09-11T04:57:58.098Z,52.92
2016-09-11T04:58:23.677Z,53.02
2016-09-11T04:58:49.815Z,52.82
2016-09-11T04:59:15.379Z,53.02
2016-09-11T04:59:40.948Z,53.5
2016-09-11T05:00:07.155Z,53.11
2016-09-11T05:00:32.713Z,53.21
2016-09-11T05:00:58.984Z,52.82
2016-09-11T05:01:24.543Z,52.92
2016-09-11T05:01:50.104Z,53.31
2016-09-11T05:02:16.278Z,53.11
2016-09-11T05:02:41.856Z,53.02
2016-09-11T05:03:08.128Z,53.02
2016-09-11T05:03:33.686Z,53.11
2016-09-11T05:03:59.899Z,53.02
2016-09-11T05:04:25.476Z,53.02
2016-09-11T05:04:51.050Z,53.31
2016-09-11T05:05:17.302Z,52.92
2016-09-11T05:05:42.874Z,53.02
2016-09-11T05:06:09.060Z,53.11
2016-09-11T05:06:34.630Z,53.02
2016-09-11T05:07:00.199Z,52.92
2016-09-11T05:07:26.389Z,52.92
2016-09-11T05:07:51.940Z,53.02
2016-09-11T05:08:18.196Z,53.21
2016-09-11T05:08:43.974Z,53.21
2016-09-11T05:09:10.005Z,53.21
2016-09-11T05:09:35.765Z,53.02
2016-09-11T05:10:01.491Z,53.21
2016-09-11T05:10:27.323Z,53.21
2016-09-11T05:10:52.971Z,53.31
2016-09-11T05:11:19.163Z,52.53
2016-09-11T05:11:45.387Z,53.31
2016-09-11T05:12:10.939Z,53.31
2016-09-11T05:12:36.528Z,52.53
2016-09-11T05:13:02.098Z,52.53
2016-09-11T05:13:28.298Z,53.21
2016-09-11T05:13:53.874Z,53.02
2016-09-11T05:14:20.077Z,52.73
2016-09-11T05:14:45.718Z,53.11
2016-09-11T05:15:11.285Z,53.21
2016-09-11T05:15:37.425Z,52.73
2016-09-11T05:16:03.022Z,53.41
2016-09-11T05:16:29.235Z,52.63
2016-09-11T05:16:54.802Z,53.02
2016-09-11T05:17:20.356Z,53.31
2016-09-11T05:17:46.570Z,52.92
2016-09-11T05:18:12.132Z,53.11
2016-09-11T05:18:38.416Z,53.41
2016-09-11T05:19:03.984Z,53.11
2016-09-11T05:19:30.185Z,53.21
2016-09-11T05:19:55.759Z,52.73
2016-09-11T05:20:21.346Z,53.31
2016-09-11T05:20:47.539Z,53.11
2016-09-11T05:21:13.148Z,53.11
2016-09-11T05:21:39.366Z,53.31
2016-09-11T05:22:04.927Z,52.63
2016-09-11T05:22:30.475Z,52.44
2016-09-11T05:22:56.678Z,52.53
2016-09-11T05:23:22.262Z,52.73
2016-09-11T05:23:48.487Z,52.44
2016-09-11T05:24:14.069Z,52.53
2016-09-11T05:24:40.286Z,52.73
2016-09-11T05:25:06.005Z,52.53
2016-09-11T05:25:31.567Z,52.53
2016-09-11T05:25:57.619Z,52.53
2016-09-11T05:26:23.201Z,52.73
2016-09-11T05:26:49.516Z,52.14
2016-09-11T05:27:15.094Z,52.24
2016-09-11T05:27:40.653Z,52.24
2016-09-11T05:28:06.751Z,52.24
2016-09-11T05:28:32.321Z,52.24
2016-09-11T05:28:58.576Z,52.73
2016-09-11T05:29:24.137Z,52.34
2016-09-11T05:29:50.361Z,52.05
2016-09-11T05:30:15.936Z,52.24
2016-09-11T05:30:41.611Z,52.34
2016-09-11T05:31:07.769Z,52.24
2016-09-11T05:31:33.381Z,52.53
2016-09-11T05:31:59.516Z,52.34
2016-09-11T05:32:25.078Z,52.44
2016-09-11T05:32:50.717Z,52.53
2016-09-11T05:33:16.893Z,52.73
2016-09-11T05:33:42.505Z,52.53
2016-09-11T05:34:08.658Z,52.34
2016-09-11T05:34:34.231Z,52.24
2016-09-11T05:35:00.468Z,52.63
2016-09-11T05:35:26.326Z,52.34
2016-09-11T05:35:51.895Z,52.34
2016-09-11T05:36:17.830Z,52.63
2016-09-11T05:36:43.429Z,52.44
2016-09-11T05:37:09.620Z,52.14
2016-09-11T05:37:35.168Z,52.53
2016-09-11T05:38:00.808Z,52.24
2016-09-11T05:38:26.948Z,52.34
2016-09-11T05:38:52.483Z,52.24
2016-09-11T05:39:18.746Z,52.24
2016-09-11T05:39:44.323Z,52.14
2016-09-11T05:40:10.733Z,52.44
2016-09-11T05:40:36.283Z,52.53
2016-09-11T05:41:01.830Z,52.34
2016-09-11T05:41:27.919Z,52.44
2016-09-11T05:41:53.506Z,52.53
2016-09-11T05:42:19.683Z,52.53
2016-09-11T05:42:45.256Z,52.14
2016-09-11T05:43:10.823Z,52.24
2016-09-11T05:43:37.030Z,52.24
2016-09-11T05:44:02.598Z,52.44
2016-09-11T05:44:28.909Z,52.24
2016-09-11T05:44:54.479Z,52.14
2016-09-11T05:45:20.638Z,52.34
2016-09-11T05:45:46.188Z,52.14
2016-09-11T05:46:11.756Z,52.44
2016-09-11T05:46:37.991Z,52.82
2016-09-11T05:47:03.684Z,52.7
2016-09-11T05:47:29.774Z,52.34
2016-09-11T05:47:55.356Z,52.73
2016-09-11T05:48:20.925Z,52.05
2016-09-11T05:48:47.134Z,52.24
2016-09-11T05:49:12.724Z,52.63
2016-09-11T05:49:38.943Z,52.53
2016-09-11T05:50:04.509Z,52.34
2016-09-11T05:50:30.730Z,52.53
2016-09-11T05:50:56.329Z,52.05
2016-09-11T05:51:21.910Z,52.53
2016-09-11T05:51:48.057Z,52.44
2016-09-11T05:52:13.871Z,51.86
2016-09-11T05:52:39.894Z,52.34
2016-09-11T05:53:05.503Z,52.05
2016-09-11T05:53:31.074Z,52.14
2016-09-11T05:53:57.219Z,52.14
2016-09-11T05:54:22.773Z,51.95
2016-09-11T05:54:49.037Z,52.63
2016-09-11T05:55:14.620Z,52.05
2016-09-11T05:55:40.814Z,52.44
2016-09-11T05:56:06.407Z,52.41
2016-09-11T05:56:31.978Z,52.44
2016-09-11T05:56:58.178Z,52.14
2016-09-11T05:57:23.740Z,52.05
2016-09-11T05:57:49.964Z,52.05
2016-09-11T05:58:15.538Z,52.34
2016-09-11T05:58:41.143Z,52.14
2016-09-11T05:59:07.301Z,52.24
2016-09-11T05:59:32.859Z,52.14
2016-09-11T05:59:59.110Z,52.34
2016-09-11T06:01:12.524Z,52.63
2016-09-11T06:01:38.174Z,52.14
2016-09-11T06:02:04.102Z,52.24
2016-09-11T06:02:29.754Z,51.95
2016-09-11T06:02:55.320Z,52.53
2016-09-11T06:03:20.877Z,52.14
2016-09-11T06:03:46.437Z,52.14
2016-09-11T06:04:12.014Z,52.14
2016-09-11T06:04:37.564Z,52.14
2016-09-11T06:05:03.377Z,52.05
2016-09-11T06:05:28.935Z,52.24
2016-09-11T06:05:54.514Z,52.34
2016-09-11T06:06:20.044Z,52.14
2016-09-11T06:06:45.757Z,52.05
2016-09-11T06:07:11.386Z,52.14
2016-09-11T06:07:36.978Z,51.95
2016-09-11T06:08:02.534Z,51.76
2016-09-11T06:08:28.322Z,52.22
2016-09-11T06:08:53.988Z,51.83
2016-09-11T06:09:19.540Z,52.24
2016-09-11T06:09:45.134Z,52.34
2016-09-11T06:10:10.802Z,52.12
2016-09-11T06:10:36.352Z,52.63
2016-09-11T06:11:01.925Z,52.05
2016-09-11T06:11:27.705Z,52.24
2016-09-11T06:11:53.228Z,52.41
2016-09-11T06:12:19.126Z,52.34
2016-09-11T06:12:44.955Z,52.99
2016-09-11T06:13:11.381Z,52.14
2016-09-11T06:13:37.104Z,52.44
2016-09-11T06:14:03.312Z,52.22
2016-09-11T06:14:29.707Z,51.86
2016-09-11T06:14:54.795Z,52.05
2016-09-11T06:15:20.422Z,52.24
2016-09-11T06:15:46.039Z,52.24
2016-09-11T06:16:11.760Z,51.95
2016-09-11T06:16:37.345Z,52.14
2016-09-11T06:17:03.014Z,51.95
2016-09-11T06:17:28.613Z,51.76
2016-09-11T06:17:54.288Z,52.05
2016-09-11T06:18:20.706Z,52.05
2016-09-11T06:18:46.254Z,52.14
2016-09-11T06:19:12.008Z,52.14
2016-09-11T06:19:37.659Z,52.24
2016-09-11T06:20:03.797Z,52.24
2016-09-11T06:20:29.123Z,52.14
2016-09-11T06:20:54.753Z,52.05
2016-09-11T06:21:20.304Z,52.14
2016-09-11T06:21:45.905Z,52.14
2016-09-11T06:22:11.511Z,52.14
2016-09-11T06:22:37.462Z,51.95
2016-09-11T06:23:03.259Z,52.24
2016-09-11T06:23:29.021Z,51.95
2016-09-11T06:23:54.521Z,51.66
2016-09-11T06:24:20.342Z,52.24
2016-09-11T06:24:45.971Z,52.14
2016-09-11T06:25:13.364Z,51.86
2016-09-11T06:25:39.012Z,52.14
2016-09-11T06:26:04.739Z,52.24
2016-09-11T06:26:30.311Z,52.24
2016-09-11T06:26:55.854Z,51.76
2016-09-11T06:27:21.424Z,52.14
2016-09-11T06:27:47.328Z,52.24
2016-09-11T06:28:12.917Z,51.95
2016-09-11T06:28:38.467Z,51.66
2016-09-11T06:29:04.192Z,51.95
2016-09-11T06:29:34.691Z,51.64
2016-09-11T06:30:00.961Z,51.86
2016-09-11T06:30:26.711Z,51.95
2016-09-11T06:30:52.217Z,52.05
2016-09-11T06:31:17.926Z,51.86
2016-09-11T06:31:44.113Z,51.64
2016-09-11T06:32:09.895Z,52.02
2016-09-11T06:32:35.592Z,52.05
2016-09-11T06:33:01.247Z,52.05
2016-09-11T06:33:27.707Z,51.95
2016-09-11T06:33:53.344Z,52.05
2016-09-11T06:34:19.021Z,51.86
2016-09-11T06:34:44.829Z,51.86
2016-09-11T06:35:10.421Z,52.05
2016-09-11T06:35:36.243Z,52.05
2016-09-11T06:36:02.191Z,52.14
2016-09-11T06:36:27.725Z,52.22
2016-09-11T06:36:53.975Z,51.66
2016-09-11T06:37:19.695Z,51.86
2016-09-11T06:37:45.285Z,51.76
2016-09-11T06:38:11.395Z,52.05
2016-09-11T06:38:37.373Z,52.24
2016-09-11T06:39:03.258Z,52.14
2016-09-11T06:39:28.793Z,51.95
2016-09-11T06:39:55.000Z,51.86
2016-09-11T06:40:20.840Z,51.95
2016-09-11T06:40:46.463Z,51.56
2016-09-11T06:41:12.439Z,51.66
2016-09-11T06:41:38.725Z,52.05
2016-09-11T06:42:04.573Z,52.14
2016-09-11T06:42:30.140Z,51.83
2016-09-11T06:42:55.790Z,52.22
2016-09-11T06:43:22.054Z,52.12
2016-09-11T06:43:47.554Z,51.76
2016-09-11T06:44:13.366Z,52.14
2016-09-11T06:44:39.074Z,51.93
2016-09-11T06:45:05.099Z,51.73
2016-09-11T06:45:30.740Z,51.83
2016-09-11T06:45:56.371Z,52.12
2016-09-11T06:46:22.396Z,52.12
2016-09-11T06:46:47.945Z,52.22
2016-09-11T06:47:14.236Z,52.51
2016-09-11T06:47:40.061Z,52.61
2016-09-11T06:48:05.628Z,52.7
2016-09-11T06:48:31.629Z,52.22
2016-09-11T06:48:57.225Z,52.31
2016-09-11T06:49:23.465Z,52.22
2016-09-11T06:49:49.123Z,52.41
2016-09-11T06:50:15.279Z,52.51
2016-09-11T06:50:40.973Z,52.8
2016-09-11T06:51:06.603Z,52.22
2016-09-11T06:51:32.615Z,52.41
2016-09-11T06:51:58.219Z,52.31
2016-09-11T06:52:24.405Z,52.51
2016-09-11T06:52:49.984Z,52.51
2016-09-11T06:53:16.244Z,52.41
2016-09-11T06:53:42.062Z,52.22
2016-09-11T06:54:07.668Z,52.7
2016-09-11T06:54:33.501Z,52.12
2016-09-11T06:54:59.077Z,52.22
2016-09-11T06:55:25.237Z,52.89
2016-09-11T06:55:50.933Z,52.12
2016-09-11T06:56:16.602Z,52.41
2016-09-11T06:56:42.592Z,52.51
2016-09-11T06:57:08.151Z,52.12
2016-09-11T06:57:34.415Z,52.22
2016-09-11T06:58:00.067Z,51.83
2016-09-11T06:58:25.735Z,52.12
2016-09-11T06:58:51.836Z,52.31
2016-09-11T06:59:17.530Z,52.39
2016-09-11T06:59:43.560Z,52.29
2016-09-11T07:00:09.169Z,52.19
2016-09-11T07:00:35.408Z,52.19
2016-09-11T07:01:01.007Z,52.39
2016-09-11T07:01:26.685Z,52.58
2016-09-11T07:02:19.923Z,52.19
2016-09-11T07:02:45.645Z,52.48
2016-09-11T07:03:11.350Z,52.67
2016-09-11T07:03:37.059Z,52.19
2016-09-11T07:04:02.655Z,52.48
2016-09-11T07:04:28.525Z,52.39
2016-09-11T07:04:54.175Z,52.19
2016-09-11T07:05:19.767Z,52.48
2016-09-11T07:05:45.357Z,52.19
2016-09-11T07:06:11.174Z,52.39
2016-09-11T07:06:36.752Z,52.22
2016-09-11T07:07:02.313Z,52.22
2016-09-11T07:07:27.981Z,52.22
2016-09-11T07:07:53.581Z,52.22
2016-09-11T07:08:19.141Z,52.22
2016-09-11T07:08:44.813Z,52.12
2016-09-11T07:09:10.402Z,52.12
2016-09-11T07:09:36.015Z,52.09
2016-09-11T07:10:01.950Z,51.81
2016-09-11T07:10:27.505Z,51.81
2016-09-11T07:10:53.079Z,52.09
2016-09-11T07:11:18.662Z,52.58
2016-09-11T07:11:44.312Z,52.29
2016-09-11T07:12:10.136Z,52.48
2016-09-11T07:12:35.912Z,52.39
2016-09-11T07:13:01.474Z,52.19
2016-09-11T07:13:27.080Z,52.19
2016-09-11T07:13:52.745Z,52.45
2016-09-11T07:14:18.343Z,51.9
2016-09-11T07:14:44.210Z,52.09
2016-09-11T07:15:09.814Z,52.19
2016-09-11T07:15:35.444Z,51.81
2016-09-11T07:16:01.001Z,52.09
2016-09-11T07:16:26.597Z,52
2016-09-11T07:16:52.272Z,52
2016-09-11T07:17:17.891Z,52
2016-09-11T07:17:43.489Z,52.07
2016-09-11T07:18:09.065Z,52.48
2016-09-11T07:18:34.711Z,52
2016-09-11T07:19:00.230Z,52.39
2016-09-11T07:19:25.897Z,51.9
2016-09-11T07:19:51.616Z,52.09
2016-09-11T07:20:17.220Z,52.09
2016-09-11T07:20:42.820Z,52.19
2016-09-11T07:21:08.387Z,52.19
2016-09-11T07:22:11.717Z,52.26
2016-09-11T07:22:37.238Z,52.17
2016-09-11T07:23:03.062Z,52.17
2016-09-11T07:23:28.650Z,52.36
2016-09-11T07:23:54.213Z,51.97
2016-09-11T07:24:19.828Z,52.29
2016-09-11T07:24:45.434Z,52.39
2016-09-11T07:25:11.082Z,52.09
2016-09-11T07:25:36.660Z,52.39
2016-09-11T07:26:02.248Z,52.29
2016-09-11T07:26:27.888Z,52.09
2016-09-11T07:26:53.463Z,52.39
2016-09-11T07:27:18.992Z,51.71
2016-09-11T07:27:44.590Z,52.09
2016-09-11T07:28:10.355Z,51.9
2016-09-11T07:28:35.951Z,52.17
2016-09-11T07:29:01.532Z,52.07
2016-09-11T07:29:27.603Z,51.97
2016-09-11T07:29:53.126Z,51.9
2016-09-11T07:30:19.275Z,51.71
2016-09-11T07:30:44.862Z,52.09
2016-09-11T07:31:10.408Z,51.71
2016-09-11T07:31:35.981Z,51.81
2016-09-11T07:32:01.668Z,52.09
2016-09-11T07:32:27.694Z,51.61
2016-09-11T07:32:53.294Z,52
2016-09-11T07:33:18.950Z,51.81
2016-09-11T07:33:44.579Z,51.9
2016-09-11T07:34:10.239Z,51.42
2016-09-11T07:34:35.834Z,51.71
2016-09-11T07:35:04.037Z,51.54
2016-09-11T07:35:29.465Z,51.54
2016-09-11T07:35:55.014Z,52.02
2016-09-11T07:36:20.846Z,52.02
2016-09-11T07:36:46.406Z,52
2016-09-11T07:37:12.057Z,51.71
2016-09-11T07:37:37.652Z,51.61
2016-09-11T07:38:04.818Z,51.61
2016-09-11T07:38:30.555Z,51.71
2016-09-11T07:38:56.158Z,51.73
2016-09-11T07:39:21.736Z,51.61
2016-09-11T07:39:47.478Z,51.93
2016-09-11T07:40:13.134Z,52.09
2016-09-11T07:40:38.685Z,52.19
2016-09-11T07:41:04.342Z,52
2016-09-11T07:41:29.988Z,51.83
2016-09-11T07:41:55.638Z,51.83
2016-09-11T07:42:21.308Z,52.22
2016-09-11T07:42:46.870Z,52.48
2016-09-11T07:43:12.457Z,51.9
2016-09-11T07:43:38.122Z,52.09
2016-09-11T07:44:03.907Z,52.22
2016-09-11T07:44:29.482Z,52.19
2016-09-11T07:44:55.024Z,51.83
2016-09-11T07:45:20.921Z,51.83
2016-09-11T07:45:46.477Z,52
2016-09-11T07:46:12.145Z,52.09
2016-09-11T07:46:37.737Z,51.9
2016-09-11T07:47:03.366Z,52.12
2016-09-11T07:47:29.006Z,52
2016-09-11T07:47:54.740Z,52
2016-09-11T07:48:20.315Z,51.73
2016-09-11T07:48:45.894Z,52.12
2016-09-11T07:49:11.508Z,51.54
2016-09-11T07:49:37.061Z,51.73
2016-09-11T07:50:02.780Z,51.73
2016-09-11T07:50:28.370Z,51.71
2016-09-11T07:50:53.922Z,51.83
2016-09-11T07:51:19.504Z,52.02
2016-09-11T07:51:45.046Z,52.09
2016-09-11T07:52:10.616Z,51.81
2016-09-11T07:52:36.355Z,51.93
2016-09-11T07:53:01.906Z,51.93
2016-09-11T07:53:27.653Z,51.83
2016-09-11T07:53:53.480Z,52.12
2016-09-11T07:54:19.412Z,51.81
2016-09-11T07:54:45.014Z,52.12
2016-09-11T07:55:10.817Z,51.83
2016-09-11T07:55:36.736Z,51.83
2016-09-11T07:56:02.532Z,52.12
2016-09-11T07:56:29.018Z,51.71
2016-09-11T07:56:55.110Z,51.93
2016-09-11T07:57:21.082Z,51.73
2016-09-11T07:57:47.082Z,51.73
2016-09-11T07:58:13.372Z,51.64
2016-09-11T07:58:39.283Z,51.54
2016-09-11T07:59:05.303Z,51.83
2016-09-11T07:59:31.251Z,51.73
2016-09-11T07:59:56.812Z,51.93
2016-09-11T08:00:22.451Z,51.93
2016-09-11T08:00:48.036Z,52.12
2016-09-11T08:01:13.675Z,51.93
2016-09-11T08:01:39.257Z,51.73
2016-09-11T08:02:04.884Z,51.44
2016-09-11T08:02:30.608Z,51.35
2016-09-11T08:02:56.311Z,51.83
2016-09-11T08:03:21.915Z,51.54
2016-09-11T08:03:47.490Z,51.73
2016-09-11T08:04:13.240Z,51.64
2016-09-11T08:04:38.906Z,51.64
2016-09-11T08:05:04.555Z,51.93
2016-09-11T08:05:30.131Z,51.93
2016-09-11T08:05:55.973Z,51.25
2016-09-11T08:06:21.535Z,51.08
2016-09-11T08:06:47.447Z,51.15
2016-09-11T08:07:13.219Z,50.96
2016-09-11T08:07:38.831Z,51.54
2016-09-11T08:08:04.379Z,51.47
2016-09-11T08:08:29.982Z,51.15
2016-09-11T08:08:55.565Z,51.15
2016-09-11T08:09:21.130Z,51.25
2016-09-11T08:09:46.838Z,51.25
2016-09-11T08:10:12.589Z,51.25
2016-09-11T08:10:38.170Z,52.02
2016-09-11T08:11:03.842Z,51.93
2016-09-11T08:11:29.549Z,51.25
2016-09-11T08:11:55.240Z,51.15
2016-09-11T08:12:20.789Z,50.96
2016-09-11T08:12:46.439Z,50.98
2016-09-11T08:13:12.515Z,50.98
2016-09-11T08:13:38.010Z,51.18
2016-09-11T08:14:03.595Z,51.08
2016-09-11T08:14:29.221Z,51.95
2016-09-11T08:14:54.809Z,52.14
2016-09-11T08:15:20.408Z,50.62
2016-09-11T08:15:46.048Z,50.6
2016-09-11T08:16:11.608Z,50.6
2016-09-11T08:16:37.272Z,50.6
2016-09-11T08:17:02.952Z,50.7
2016-09-11T08:18:01.403Z,50.98
2016-09-11T08:18:26.818Z,51.86
2016-09-11T08:18:52.281Z,51.66
2016-09-11T08:19:17.938Z,51.76
2016-09-11T08:19:43.584Z,51.95
2016-09-11T08:20:09.467Z,51.86
2016-09-11T08:20:35.054Z,52.14
2016-09-11T08:21:01.000Z,52.34
2016-09-11T08:21:26.570Z,51.66
2016-09-11T08:21:52.910Z,51.66
2016-09-11T08:22:18.530Z,51.1
2016-09-11T08:22:44.088Z,50.92
2016-09-11T08:23:10.153Z,51.3
2016-09-11T08:23:35.772Z,50.82
2016-09-11T08:24:02.019Z,51.1
2016-09-11T08:24:27.618Z,51.2
2016-09-11T08:24:53.202Z,51.2
2016-09-11T08:25:19.342Z,51.2
2016-09-11T08:25:44.959Z,51.1
2016-09-11T08:26:11.158Z,51.01
2016-09-11T08:26:36.742Z,51.3
2016-09-11T08:27:02.984Z,51.88
2016-09-11T08:27:28.671Z,51.78
2016-09-11T08:27:54.371Z,51.59
2016-09-11T08:28:20.275Z,51.59
2016-09-11T08:28:45.823Z,51.76
2016-09-11T08:29:12.107Z,52.17
2016-09-11T08:29:37.684Z,51.66
2016-09-11T08:30:03.788Z,52.17
2016-09-11T08:30:29.495Z,52.05
2016-09-11T08:30:55.066Z,52.14
2016-09-11T08:32:51.870Z,52.14
2016-09-11T08:33:17.577Z,52.24
2016-09-11T08:33:43.274Z,52.24
2016-09-11T08:34:08.844Z,52.82
2016-09-11T08:34:34.430Z,53.02
2016-09-11T08:35:00.381Z,53.19
2016-09-11T08:36:46.333Z,53.96
2016-09-11T08:37:11.911Z,53.86
2016-09-11T08:37:37.580Z,54.15
2016-09-11T08:38:03.174Z,53.96
2016-09-11T08:38:28.712Z,53.57
2016-09-11T08:38:54.247Z,53.86
2016-09-11T08:39:19.917Z,53.86
2016-09-11T08:39:45.466Z,53.96
2016-09-11T08:40:11.031Z,53.96
2016-09-11T08:40:36.577Z,53.79
2016-09-11T08:41:02.350Z,53.77
2016-09-11T08:41:27.920Z,53.67
2016-09-11T08:41:53.533Z,54.53
2016-09-11T08:42:19.090Z,53.47
2016-09-11T08:42:44.831Z,53.77
2016-09-11T08:43:10.455Z,54.25
2016-09-11T08:43:36.022Z,53.96
2016-09-11T08:44:02.159Z,54.05
2016-09-11T08:44:27.726Z,54.73
2016-09-11T08:44:53.298Z,53.86
2016-09-11T08:45:18.868Z,54.35
2016-09-11T08:45:44.434Z,53.77
2016-09-11T08:46:09.966Z,53.57
2016-09-11T08:46:35.742Z,53.96
2016-09-11T08:47:01.289Z,53.86
2016-09-11T08:47:26.924Z,53.99
2016-09-11T08:47:52.713Z,53.86
2016-09-11T08:48:18.407Z,53.86
2016-09-11T08:48:43.942Z,53.89
2016-09-11T08:49:09.490Z,53.89
2016-09-11T08:49:35.102Z,53.59
2016-09-11T08:50:38.374Z,53.21
2016-09-11T08:51:03.934Z,53.79
2016-09-11T08:51:29.589Z,53.41
2016-09-11T08:51:55.131Z,53.5
2016-09-11T08:52:20.846Z,53.77
2016-09-11T08:52:46.483Z,53.77
2016-09-11T08:53:12.063Z,53.86
2016-09-11T08:53:37.658Z,54.17
2016-09-11T08:54:03.287Z,53.89
2016-09-11T08:54:28.855Z,53.99
2016-09-11T08:54:54.405Z,53.5
2016-09-11T08:55:19.978Z,54.37
2016-09-11T08:55:45.603Z,54.37
2016-09-11T08:56:11.269Z,54.17
2016-09-11T08:56:36.908Z,53.69
2016-09-11T08:57:02.825Z,54.37
2016-09-11T08:57:28.476Z,54.08
2016-09-11T08:57:54.054Z,53.79
2016-09-11T08:58:19.932Z,53.99
2016-09-11T08:58:45.488Z,54.08
2016-09-11T08:59:11.068Z,53.99
2016-09-11T08:59:36.640Z,53.79
2016-09-11T09:00:02.384Z,54.17
2016-09-11T09:00:28.034Z,54.08
2016-09-11T09:00:53.640Z,53.99
2016-09-11T09:01:19.259Z,53.96
2016-09-11T09:01:44.893Z,53.79
2016-09-11T09:02:10.520Z,53.79
2016-09-11T09:02:36.125Z,54.08
2016-09-11T09:03:01.729Z,53.99
2016-09-11T09:03:27.305Z,54.17
2016-09-11T09:03:53.032Z,53.96
2016-09-11T09:04:18.974Z,54.08
2016-09-11T09:04:44.698Z,53.99
2016-09-11T09:05:10.274Z,54.17
2016-09-11T09:05:36.148Z,53.69
2016-09-11T09:06:01.827Z,53.99
2016-09-11T09:06:27.396Z,54.27
2016-09-11T09:06:53.169Z,53.89
2016-09-11T09:07:18.848Z,54.17
2016-09-11T09:07:44.662Z,53.89
2016-09-11T09:08:10.345Z,54.08
2016-09-11T09:08:36.101Z,54.27
2016-09-11T09:09:01.706Z,54.37
2016-09-11T09:09:27.271Z,54.75
2016-09-11T09:09:52.918Z,54.66
2016-09-11T09:10:18.508Z,54.66
2016-09-11T09:10:44.076Z,55.05
2016-09-11T09:11:09.774Z,54.66
2016-09-11T09:11:35.375Z,54.57
2016-09-11T09:12:01.236Z,54.85
2016-09-11T09:12:27.046Z,54.66
2016-09-11T09:12:52.704Z,54.57
2016-09-11T09:14:34.167Z,54.95
2016-09-11T09:14:59.738Z,55.15
2016-09-11T09:15:25.298Z,54.85
2016-09-11T09:15:50.856Z,54.85
2016-09-11T09:16:16.700Z,55.15
2016-09-11T09:17:14.851Z,54.75
2016-09-11T09:17:40.671Z,54.95
2016-09-11T09:18:06.329Z,54.85
2016-09-11T09:18:32.002Z,54.95
2016-09-11T09:18:58.080Z,55.05
2016-09-11T09:19:24.221Z,54.85
2016-09-11T09:19:49.831Z,55.73
2016-09-11T09:20:15.417Z,55.34
2016-09-11T09:20:40.973Z,55.34
2016-09-11T09:21:06.602Z,55.43
2016-09-11T09:21:32.255Z,55.43
2016-09-11T09:21:57.999Z,55.43
2016-09-11T09:22:23.633Z,55.43
2016-09-11T09:22:49.303Z,55.53
2016-09-11T09:23:14.910Z,55.34
2016-09-11T09:23:40.472Z,54.85
2016-09-11T09:24:06.119Z,55.43
2016-09-11T09:24:31.686Z,54.85
2016-09-11T09:24:57.351Z,55.34
2016-09-11T09:25:22.973Z,55.43
2016-09-11T09:25:48.950Z,55.43
2016-09-11T09:26:15.055Z,55.53
2016-09-11T09:26:40.617Z,55.43
2016-09-11T09:27:06.286Z,55.63
2016-09-11T09:27:31.930Z,55.43
2016-09-11T09:27:57.513Z,55.53
2016-09-11T09:28:23.135Z,55.53
2016-09-11T09:28:48.778Z,55.53
2016-09-11T09:29:14.373Z,55.34
2016-09-11T09:29:39.939Z,55.43
2016-09-11T09:30:05.629Z,55.34
2016-09-11T09:30:31.237Z,55.34
2016-09-11T09:30:56.807Z,55.24
2016-09-11T09:31:22.460Z,56.4
2016-09-11T09:31:48.091Z,56.21
2016-09-11T09:32:13.641Z,55.99
2016-09-11T09:32:39.361Z,55.99
2016-09-11T09:33:04.943Z,56.3
2016-09-11T09:33:30.650Z,56.18
2016-09-11T09:33:56.342Z,56.09
2016-09-11T09:34:22.287Z,56.11
2016-09-11T09:34:48.336Z,56.21
2016-09-11T09:35:13.926Z,55.63
2016-09-11T09:35:39.620Z,55.63
2016-09-11T09:36:05.243Z,55.53
2016-09-11T09:36:30.825Z,55.63
2016-09-11T09:36:56.482Z,55.43
2016-09-11T09:37:22.293Z,55.63
2016-09-11T09:37:47.978Z,55.34
2016-09-11T09:38:13.647Z,55.53
2016-09-11T09:38:39.352Z,54.95
2016-09-11T09:39:05.103Z,55.34
2016-09-11T09:39:30.741Z,55.82
2016-09-11T09:39:56.488Z,55.53
2016-09-11T09:40:22.945Z,55.43
2016-09-11T09:40:48.788Z,55.43
2016-09-11T09:41:14.572Z,55.53